Time;durP1;ratioP1;P1;durP2;ratioP2;P2;SDS_P1;SDS_P2;PMS_P1;PMS_P2;Temp;Humidity;BMP_temperature;BMP_pressure;BME280_temperature;BME280_humidity;BME280_pressure;Samples;Min_cycle;Max_cycle;Signal;HPM_P1;HPM_P2
2022/02/28 00:01:57;;;;;;;26.57;14.47;;;0.10;1.00;;;;;;5072349;28;20195;-69
2022/02/28 00:04:25;;;;;;;24.70;13.93;;;0.00;1.00;;;;;;5071572;28;20653;-69
2022/02/28 00:06:53;;;;;;;25.83;13.83;;;0.00;1.00;;;;;;5071524;28;20206;-69
2022/02/28 00:09:20;;;;;;;24.27;14.03;;;-0.10;1.00;;;;;;5072157;28;20655;-69
2022/02/28 00:11:46;;;;;;;26.57;14.07;;;-0.10;1.00;;;;;;5068117;28;20687;-69
2022/02/28 00:14:13;;;;;;;26.43;14.50;;;0.00;1.00;;;;;;5071998;28;20210;-69
2022/02/28 00:16:40;;;;;;;27.13;14.60;;;0.00;1.00;;;;;;5072566;28;20296;-69
2022/02/28 00:19:08;;;;;;;28.03;14.97;;;0.00;1.00;;;;;;5062215;28;20206;-69
2022/02/28 00:21:35;;;;;;;28.37;14.60;;;0.10;1.00;;;;;;5071019;28;20194;-69
2022/02/28 00:24:02;;;;;;;27.83;14.70;;;0.00;1.00;;;;;;5071670;28;20194;-69
2022/02/28 00:26:29;;;;;;;26.50;14.83;;;0.00;1.00;;;;;;5071763;28;20198;-69
2022/02/28 00:28:56;;;;;;;28.00;14.47;;;-0.10;1.00;;;;;;5070824;28;20300;-69
2022/02/28 00:31:23;;;;;;;28.67;15.00;;;-0.10;1.00;;;;;;5071225;28;20222;-69
2022/02/28 00:33:49;;;;;;;25.60;13.77;;;-0.20;1.00;;;;;;5072131;28;20216;-69
2022/02/28 00:36:18;;;;;;;26.57;14.10;;;-0.20;1.00;;;;;;5071340;28;20200;-69
2022/02/28 00:38:45;;;;;;;28.93;15.00;;;-0.20;1.00;;;;;;5071231;28;20214;-69
2022/02/28 00:41:11;;;;;;;28.60;14.73;;;-0.20;1.00;;;;;;5071909;28;20202;-69
2022/02/28 00:43:38;;;;;;;26.63;14.73;;;-0.30;1.00;;;;;;5071956;28;20641;-69
2022/02/28 00:46:05;;;;;;;28.93;15.53;;;-0.20;99.90;;;;;;5070954;28;20194;-69
2022/02/28 00:48:32;;;;;;;28.00;14.63;;;-0.20;99.90;;;;;;5071829;28;20224;-69
2022/02/28 00:50:59;;;;;;;31.23;16.90;;;-0.30;99.90;;;;;;5070837;28;20194;-69
2022/02/28 00:53:27;;;;;;;29.77;16.30;;;-0.30;99.90;;;;;;5072018;28;20213;-69
2022/02/28 00:55:54;;;;;;;28.90;15.87;;;-0.20;99.90;;;;;;5071339;28;20208;-69
2022/02/28 00:58:22;;;;;;;30.20;15.27;;;-0.10;99.90;;;;;;5070308;28;20197;-69
2022/02/28 01:00:49;;;;;;;26.73;14.43;;;0.00;99.90;;;;;;5069933;28;20195;-69
2022/02/28 01:03:16;;;;;;;28.90;15.40;;;0.00;99.90;;;;;;5071768;28;20207;-69
2022/02/28 01:05:43;;;;;;;29.80;14.93;;;-0.10;1.00;;;;;;5071494;28;20208;-69
2022/02/28 01:08:10;;;;;;;29.53;14.80;;;-0.30;1.00;;;;;;5071410;28;20213;-69
2022/02/28 01:10:38;;;;;;;25.67;14.07;;;-0.40;1.00;;;;;;5071179;28;20210;-69
2022/02/28 01:13:10;;;;;;;28.30;15.20;;;-0.30;1.00;;;;;;5069984;28;20676;-69
2022/02/28 01:15:37;;;;;;;30.20;14.37;;;-0.40;1.00;;;;;;5071364;28;20302;-69
2022/02/28 01:18:04;;;;;;;29.37;15.30;;;-0.30;1.00;;;;;;5071583;28;20252;-69
2022/02/28 01:20:31;;;;;;;31.10;15.13;;;-0.30;1.00;;;;;;5070908;28;20206;-73
2022/02/28 01:22:58;;;;;;;28.53;14.77;;;-0.20;62.20;;;;;;5071103;28;20202;-69
2022/02/28 01:25:25;;;;;;;29.67;16.27;;;0.00;91.80;;;;;;5071374;28;20203;-69
2022/02/28 01:27:53;;;;;;;30.07;15.90;;;0.10;99.90;;;;;;5071224;28;20540;-67
2022/02/28 01:30:20;;;;;;;29.37;14.90;;;0.10;25.80;;;;;;5071053;28;20198;-68
2022/02/28 01:32:47;;;;;;;28.83;15.07;;;0.00;1.00;;;;;;5071267;28;20615;-67
2022/02/28 01:35:15;;;;;;;31.77;16.00;;;0.10;1.00;;;;;;5070922;28;20700;-67
2022/02/28 01:37:42;;;;;;;27.97;16.13;;;0.10;1.00;;;;;;5069808;28;20228;-67
2022/02/28 01:40:12;;;;;;;34.97;16.03;;;0.00;1.00;;;;;;5071669;28;20203;-67
2022/02/28 01:42:39;;;;;;;29.63;15.63;;;-0.10;1.00;;;;;;5071453;28;20535;-67
2022/02/28 01:45:09;;;;;;;28.73;16.37;;;-0.10;1.00;;;;;;5070599;28;20289;-67
2022/02/28 01:47:37;;;;;;;32.87;15.30;;;-0.20;1.00;;;;;;5071794;28;20202;-67
2022/02/28 01:50:04;;;;;;;28.87;15.30;;;-0.20;1.00;;;;;;5074588;28;20616;-67
2022/02/28 01:52:31;;;;;;;29.07;14.80;;;-0.20;1.00;;;;;;5073576;28;20217;-67
2022/02/28 01:54:58;;;;;;;29.17;15.80;;;-0.30;1.00;;;;;;5074839;28;20206;-67
2022/02/28 01:57:25;;;;;;;27.90;15.03;;;-0.30;1.00;;;;;;5074201;28;20548;-67
2022/02/28 01:59:52;;;;;;;28.13;14.43;;;-0.40;1.00;;;;;;5074108;28;20198;-67
2022/02/28 02:02:20;;;;;;;27.73;13.77;;;-0.40;1.00;;;;;;5073131;28;20208;-67
2022/02/28 02:04:49;;;;;;;25.00;13.47;;;-0.40;1.00;;;;;;5067981;28;20203;-67
2022/02/28 02:07:16;;;;;;;28.23;14.77;;;-0.40;1.00;;;;;;5074781;28;20216;-67
2022/02/28 02:09:43;;;;;;;28.23;14.63;;;-0.30;1.00;;;;;;5074072;28;20194;-67
2022/02/28 02:12:11;;;;;;;27.37;14.30;;;-0.30;1.00;;;;;;5073582;28;20217;-67
2022/02/28 02:14:38;;;;;;;26.47;14.53;;;-0.40;1.00;;;;;;5072991;28;20664;-67
2022/02/28 02:17:05;;;;;;;26.83;14.23;;;-0.40;1.00;;;;;;5073186;28;20207;-67
2022/02/28 02:19:37;;;;;;;28.67;15.17;;;-0.40;1.00;;;;;;5074376;28;20576;-67
2022/02/28 02:22:06;;;;;;;28.23;13.73;;;-0.50;1.00;;;;;;5074135;28;20229;-67
2022/02/28 02:24:33;;;;;;;28.80;14.50;;;-0.50;65.80;;;;;;5073808;28;20433;-67
2022/02/28 02:27:00;;;;;;;25.73;13.90;;;-0.60;99.90;;;;;;5074224;28;20205;-67
2022/02/28 02:29:27;;;;;;;24.97;14.63;;;-0.50;99.90;;;;;;5072870;28;20198;-67
2022/02/28 02:31:54;;;;;;;30.60;15.90;;;-0.70;99.90;;;;;;5073443;28;20226;-67
2022/02/28 02:34:21;;;;;;;27.00;14.30;;;-0.80;99.90;;;;;;5073630;28;20194;-67
2022/02/28 02:36:48;;;;;;;30.60;14.80;;;-0.70;99.90;;;;;;5072816;28;20202;-67
2022/02/28 02:39:16;;;;;;;25.40;13.87;;;-0.70;1.00;;;;;;5073827;28;20222;-67
2022/02/28 02:41:43;;;;;;;26.33;14.67;;;-0.60;1.00;;;;;;5073479;28;20191;-67
2022/02/28 02:44:10;;;;;;;30.17;15.33;;;-0.60;1.00;;;;;;5073564;28;20198;-67
2022/02/28 02:46:45;;;;;;;34.50;16.17;;;-0.60;1.00;;;;;;5072128;28;20596;-67
2022/02/28 02:49:13;;;;;;;27.70;14.87;;;-0.70;1.00;;;;;;5074049;28;20651;-67
2022/02/28 02:51:41;;;;;;;29.30;14.83;;;-0.80;1.00;;;;;;5073236;28;20611;-67
2022/02/28 02:54:08;;;;;;;29.37;14.60;;;-0.80;1.00;;;;;;5073201;28;20655;-67
2022/02/28 02:56:36;;;;;;;31.00;15.37;;;-0.90;1.00;;;;;;5073426;28;20202;-67
2022/02/28 02:59:04;;;;;;;27.50;14.17;;;-1.00;1.00;;;;;;5073524;28;20201;-67
2022/02/28 03:01:30;;;;;;;28.17;14.57;;;-1.10;1.00;;;;;;5072271;28;20210;-67
2022/02/28 03:03:57;;;;;;;28.70;15.30;;;-1.10;1.00;;;;;;5073876;28;20194;-67
2022/02/28 03:06:24;;;;;;;27.53;13.97;;;-1.00;1.00;;;;;;5072372;28;20289;-67
2022/02/28 03:08:51;;;;;;;28.80;14.70;;;-1.00;1.00;;;;;;5073589;28;20210;-67
2022/02/28 03:11:18;;;;;;;25.97;14.17;;;-1.00;1.00;;;;;;5072749;28;20205;-67
2022/02/28 03:13:46;;;;;;;27.13;13.50;;;-1.10;1.00;;;;;;5071924;28;20230;-67
2022/02/28 03:16:13;;;;;;;26.43;13.27;;;-1.20;1.00;;;;;;5072160;28;20546;-67
2022/02/28 03:18:40;;;;;;;28.53;14.93;;;-1.00;1.00;;;;;;5072320;28;20557;-67
2022/02/28 03:21:07;;;;;;;25.80;13.43;;;-1.10;1.00;;;;;;5073504;28;20202;-67
2022/02/28 03:23:34;;;;;;;30.30;14.83;;;-1.20;1.00;;;;;;5071549;28;20197;-67
2022/02/28 03:26:01;;;;;;;26.63;14.17;;;-1.10;1.00;;;;;;5072344;28;20565;-67
2022/02/28 03:28:28;;;;;;;25.90;13.97;;;-1.00;1.00;;;;;;5072641;28;20199;-67
2022/02/28 03:30:56;;;;;;;30.33;15.77;;;-1.10;1.00;;;;;;5072132;28;20216;-67
2022/02/28 03:33:23;;;;;;;30.13;15.33;;;-1.10;1.00;;;;;;5072818;28;20225;-67
2022/02/28 03:35:50;;;;;;;28.07;15.10;;;-1.20;1.00;;;;;;5071892;28;20285;-67
2022/02/28 03:38:17;;;;;;;29.77;15.07;;;-1.30;1.00;;;;;;5071615;28;20198;-67
2022/02/28 03:40:44;;;;;;;28.73;15.33;;;-1.20;1.00;;;;;;5072621;28;20664;-67
2022/02/28 03:43:11;;;;;;;27.83;14.53;;;-1.20;1.00;;;;;;5072815;28;20206;-67
2022/02/28 03:45:38;;;;;;;27.87;15.17;;;-1.10;1.00;;;;;;5071534;28;20195;-67
2022/02/28 03:48:07;;;;;;;25.03;13.23;;;-1.30;1.00;;;;;;5071983;28;20207;-67
2022/02/28 03:50:34;;;;;;;25.30;12.97;;;-1.30;1.00;;;;;;5071634;28;20210;-67
2022/02/28 03:53:00;;;;;;;27.10;14.50;;;-1.40;1.00;;;;;;5066895;28;20214;-67
2022/02/28 03:55:28;;;;;;;28.20;13.63;;;-1.20;1.00;;;;;;5072236;28;20573;-67
2022/02/28 03:57:54;;;;;;;26.40;13.60;;;-1.30;1.00;;;;;;5071876;28;20660;-67
2022/02/28 04:00:21;;;;;;;27.90;14.10;;;-1.30;1.00;;;;;;5072024;28;20296;-67
2022/02/28 04:02:48;;;;;;;26.87;13.97;;;-1.50;1.00;;;;;;5072737;28;20198;-67
2022/02/28 04:05:18;;;;;;;26.17;13.07;;;-1.50;1.00;;;;;;5066498;28;20198;-67
2022/02/28 04:07:47;;;;;;;26.40;14.33;;;-1.40;1.00;;;;;;5072041;28;20198;-67
2022/02/28 04:10:15;;;;;;;24.77;13.00;;;-1.50;1.00;;;;;;5071301;28;20229;-67
2022/02/28 04:12:43;;;;;;;28.27;13.97;;;-1.50;1.00;;;;;;5070714;28;20226;-67
2022/02/28 04:15:11;;;;;;;26.90;14.17;;;-1.30;1.00;;;;;;5072219;28;20249;-67
2022/02/28 04:17:38;;;;;;;27.30;15.07;;;-1.30;1.00;;;;;;5071040;28;20213;-67
2022/02/28 04:20:06;;;;;;;27.20;14.13;;;-1.30;1.00;;;;;;5072430;28;20210;-67
2022/02/28 04:22:34;;;;;;;29.77;14.83;;;-1.40;1.00;;;;;;5071027;28;20198;-67
2022/02/28 04:25:01;;;;;;;27.77;14.43;;;-1.60;1.00;;;;;;5071887;28;20216;-67
2022/02/28 04:27:28;;;;;;;26.77;13.90;;;-1.40;1.00;;;;;;5071391;28;20198;-67
2022/02/28 04:29:55;;;;;;;26.23;13.60;;;-1.30;1.00;;;;;;5071802;28;20570;-67
2022/02/28 04:32:22;;;;;;;26.37;13.83;;;-1.50;1.00;;;;;;5072044;28;20197;-67
2022/02/28 04:34:49;;;;;;;30.67;15.00;;;-1.40;1.00;;;;;;5072238;28;20206;-67
2022/02/28 04:37:16;;;;;;;25.80;13.23;;;-1.40;1.00;;;;;;5071613;28;20216;-67
2022/02/28 04:39:44;;;;;;;26.83;13.57;;;-1.40;1.00;;;;;;5071309;28;20224;-67
2022/02/28 04:42:11;;;;;;;26.07;13.33;;;-1.50;1.00;;;;;;5071385;28;20195;-67
2022/02/28 04:44:38;;;;;;;27.63;13.57;;;-1.40;1.00;;;;;;5071679;28;20214;-67
2022/02/28 04:47:06;;;;;;;27.87;14.00;;;-1.50;1.00;;;;;;5070790;28;20206;-67
2022/02/28 04:49:33;;;;;;;29.60;15.07;;;-1.50;1.00;;;;;;5071998;28;20214;-67
2022/02/28 04:52:00;;;;;;;27.70;14.27;;;-1.40;1.00;;;;;;5070804;28;20293;-69
2022/02/28 04:54:27;;;;;;;30.10;14.03;;;-1.30;1.00;;;;;;5071614;28;20242;-68
2022/02/28 04:56:55;;;;;;;28.37;14.23;;;-1.40;1.00;;;;;;5071596;28;20656;-69
2022/02/28 04:59:22;;;;;;;29.47;15.20;;;-1.30;51.20;;;;;;5071846;28;20652;-68
2022/02/28 05:01:49;;;;;;;31.00;14.87;;;-1.30;54.70;;;;;;5071474;28;20202;-69
2022/02/28 05:04:16;;;;;;;29.30;14.67;;;-1.30;57.40;;;;;;5071794;28;20209;-69
2022/02/28 05:06:43;;;;;;;29.10;13.80;;;-1.40;58.60;;;;;;5071372;28;20218;-69
2022/02/28 05:09:10;;;;;;;27.77;14.57;;;-1.30;54.10;;;;;;5071735;28;20211;-68
2022/02/28 05:11:37;;;;;;;28.27;14.63;;;-1.50;32.80;;;;;;5071210;28;20198;-69
2022/02/28 05:14:05;;;;;;;28.43;14.77;;;-1.30;99.90;;;;;;5070477;28;20218;-69
2022/02/28 05:16:32;;;;;;;28.07;14.47;;;-1.30;99.90;;;;;;5070312;28;20586;-69
2022/02/28 05:18:59;;;;;;;29.80;14.53;;;-1.40;90.00;;;;;;5070995;28;20222;-69
2022/02/28 05:21:26;;;;;;;32.33;16.63;;;-1.50;99.90;;;;;;5071648;28;20207;-69
2022/02/28 05:23:53;;;;;;;29.40;15.63;;;-1.30;99.90;;;;;;5073849;28;20198;-69
2022/02/28 05:26:20;;;;;;;28.33;14.30;;;-1.40;99.90;;;;;;5075292;28;20218;-69
2022/02/28 05:28:46;;;;;;;29.00;14.93;;;-1.30;99.90;;;;;;5075004;28;20206;-69
2022/02/28 05:31:15;;;;;;;28.37;13.93;;;-1.40;99.90;;;;;;5065957;28;20213;-69
2022/02/28 05:33:41;;;;;;;32.33;15.60;;;-1.30;99.90;;;;;;5075872;28;20222;-69
2022/02/28 05:36:08;;;;;;;31.30;14.53;;;-1.30;99.90;;;;;;5074510;28;20547;-69
2022/02/28 05:38:35;;;;;;;29.07;14.80;;;-1.40;99.90;;;;;;5075706;28;20202;-69
2022/02/28 05:41:02;;;;;;;27.53;13.70;;;-1.40;99.90;;;;;;5074764;28;20206;-69
2022/02/28 05:43:29;;;;;;;29.87;16.07;;;-1.20;99.90;;;;;;5074768;28;20206;-69
2022/02/28 05:45:56;;;;;;;31.73;14.70;;;-1.10;99.90;;;;;;5073973;28;20718;-69
2022/02/28 05:48:24;;;;;;;28.50;15.20;;;-1.20;99.90;;;;;;5074354;28;20392;-69
2022/02/28 05:50:51;;;;;;;28.67;14.87;;;-1.40;99.90;;;;;;5075214;28;20216;-69
2022/02/28 05:53:18;;;;;;;28.83;14.90;;;-1.40;99.90;;;;;;5074446;28;20229;-69
2022/02/28 05:55:45;;;;;;;29.63;15.40;;;-1.30;99.90;;;;;;5075462;28;20204;-69
2022/02/28 05:58:12;;;;;;;27.97;13.87;;;-1.30;99.90;;;;;;5075212;28;20625;-69
2022/02/28 06:00:38;;;;;;;26.60;14.43;;;-1.30;99.90;;;;;;5074252;28;20656;-69
2022/02/28 06:03:05;;;;;;;27.80;14.37;;;-1.30;99.90;;;;;;5075130;28;20557;-69
2022/02/28 06:05:34;;;;;;;27.27;13.73;;;-1.30;99.90;;;;;;5074188;28;20708;-69
2022/02/28 06:08:00;;;;;;;28.67;14.90;;;-1.20;99.90;;;;;;5074747;28;20293;-69
2022/02/28 06:10:27;;;;;;;28.80;15.03;;;-1.10;99.90;;;;;;5074740;28;20296;-69
2022/02/28 06:12:56;;;;;;;27.27;13.77;;;-1.20;99.90;;;;;;5073614;28;20563;-69
2022/02/28 06:15:23;;;;;;;26.97;13.37;;;-1.50;99.90;;;;;;5074033;28;20218;-69
2022/02/28 06:17:50;;;;;;;25.10;13.63;;;-1.70;71.40;;;;;;5073658;28;20182;-69
2022/02/28 06:20:17;;;;;;;25.40;13.17;;;-1.70;83.30;;;;;;5074650;28;20323;-69
2022/02/28 06:22:45;;;;;;;25.97;14.43;;;-1.70;94.00;;;;;;5073981;28;20210;-69
2022/02/28 06:25:12;;;;;;;30.27;14.47;;;-1.70;94.60;;;;;;5073948;28;20339;-69
2022/02/28 06:27:38;;;;;;;29.33;14.83;;;-1.60;99.20;;;;;;5073694;28;20208;-69
2022/02/28 06:30:07;;;;;;;27.70;14.47;;;-1.60;99.90;;;;;;5073488;28;20202;-69
2022/02/28 06:32:34;;;;;;;31.33;14.73;;;-1.50;99.90;;;;;;5074598;28;20629;-69
2022/02/28 06:35:02;;;;;;;26.43;12.53;;;-1.50;99.90;;;;;;5074035;28;20313;-69
2022/02/28 06:37:29;;;;;;;30.53;14.63;;;-1.50;97.20;;;;;;5072545;28;20213;-69
2022/02/28 06:39:57;;;;;;;31.80;14.87;;;-1.50;99.90;;;;;;5074137;28;20206;-69
2022/02/28 06:42:23;;;;;;;30.20;15.73;;;-1.40;99.90;;;;;;5074039;28;20206;-69
2022/02/28 06:44:50;;;;;;;28.53;14.73;;;-1.30;99.90;;;;;;5074253;28;20567;-69
2022/02/28 06:47:17;;;;;;;29.10;15.27;;;-1.30;99.90;;;;;;5073599;28;20216;-69
2022/02/28 06:49:44;;;;;;;29.63;15.33;;;-1.20;99.90;;;;;;5074333;28;20209;-69
2022/02/28 06:52:11;;;;;;;32.93;15.30;;;-1.20;99.90;;;;;;5072948;28;20202;-69
2022/02/28 06:54:38;;;;;;;38.67;18.27;;;-1.00;99.90;;;;;;5073728;28;20685;-69
2022/02/28 06:57:06;;;;;;;29.63;15.67;;;-1.00;99.90;;;;;;5073401;28;20217;-69
2022/02/28 06:59:34;;;;;;;32.00;16.50;;;-1.00;99.90;;;;;;5073340;28;20205;-69
2022/02/28 07:02:00;;;;;;;34.23;15.80;;;-0.90;99.90;;;;;;5073421;28;20202;-69
2022/02/28 07:04:27;;;;;;;30.90;16.63;;;-0.80;82.50;;;;;;5073189;28;20209;-73
2022/02/28 07:06:54;;;;;;;33.27;15.33;;;-0.80;1.20;;;;;;5073370;28;20210;-69
2022/02/28 07:09:21;;;;;;;30.23;15.20;;;-0.60;1.00;;;;;;5073458;28;20213;-69
2022/02/28 07:11:48;;;;;;;34.67;16.17;;;-0.60;1.00;;;;;;5073961;28;20671;-69
2022/02/28 07:14:16;;;;;;;37.40;17.60;;;-0.40;1.00;;;;;;5071998;28;20237;-69
2022/02/28 07:16:43;;;;;;;38.80;17.80;;;-0.50;1.00;;;;;;5072848;28;20582;-69
2022/02/28 07:19:10;;;;;;;36.37;17.83;;;-0.40;1.00;;;;;;5072953;28;20213;-69
2022/02/28 07:21:37;;;;;;;30.93;15.67;;;-0.20;1.00;;;;;;5073536;28;20199;-69
2022/02/28 07:24:05;;;;;;;31.03;15.73;;;-0.30;1.00;;;;;;5072765;28;20665;-69
2022/02/28 07:26:34;;;;;;;28.57;15.97;;;-0.10;1.00;;;;;;5073623;28;20211;-69
2022/02/28 07:29:00;;;;;;;30.97;15.90;;;0.00;1.00;;;;;;5072433;28;20207;-69
2022/02/28 07:31:29;;;;;;;28.10;15.03;;;0.00;1.00;;;;;;5072906;28;20216;-69
2022/02/28 07:33:55;;;;;;;31.30;15.13;;;0.00;99.90;;;;;;5072647;28;20218;-69
2022/02/28 07:36:22;;;;;;;29.50;15.40;;;0.10;99.90;;;;;;5072356;28;20562;-69
2022/02/28 07:38:49;;;;;;;28.77;15.57;;;0.20;99.90;;;;;;5073309;28;20209;-69
2022/02/28 07:41:16;;;;;;;31.80;15.50;;;0.50;1.00;;;;;;5072924;28;20212;-69
2022/02/28 07:43:43;;;;;;;31.60;16.57;;;0.90;1.00;;;;;;5073061;28;20331;-69
2022/02/28 07:46:10;;;;;;;27.70;14.93;;;1.70;99.90;;;;;;5071279;28;20202;-69
2022/02/28 07:48:38;;;;;;;29.53;15.60;;;1.90;99.90;;;;;;5072799;28;20233;-69
2022/02/28 07:51:05;;;;;;;27.93;14.57;;;1.90;99.90;;;;;;5072380;28;20198;-69
2022/02/28 07:53:32;;;;;;;28.53;15.10;;;1.40;99.90;;;;;;5071965;28;20291;-69
2022/02/28 07:55:59;;;;;;;30.43;16.73;;;0.90;1.00;;;;;;5072584;28;20729;-69
2022/02/28 07:58:26;;;;;;;31.63;16.03;;;0.80;69.90;;;;;;5072392;28;20202;-69
2022/02/28 08:00:53;;;;;;;35.63;18.07;;;0.80;99.90;;;;;;5072120;28;20210;-69
2022/02/28 08:03:19;;;;;;;32.20;15.50;;;0.90;99.90;;;;;;5072560;28;20203;-69
2022/02/28 08:05:48;;;;;;;31.60;16.50;;;0.80;99.90;;;;;;5071980;28;20571;-67
2022/02/28 08:08:15;;;;;;;35.07;18.60;;;0.90;99.90;;;;;;5072618;28;20202;-68
2022/02/28 08:10:41;;;;;;;35.77;17.23;;;1.70;1.00;;;;;;5072311;28;20206;-68
2022/02/28 08:13:11;;;;;;;34.47;17.90;;;1.40;99.90;;;;;;5072398;28;20210;-68
2022/02/28 08:15:38;;;;;;;34.57;18.77;;;1.10;1.00;;;;;;5072392;28;20718;-68
2022/02/28 08:18:05;;;;;;;34.23;17.77;;;1.40;1.00;;;;;;5072209;28;20214;-68
2022/02/28 08:20:32;;;;;;;34.33;18.00;;;1.70;1.00;;;;;;5071842;28;20678;-68
2022/02/28 08:23:00;;;;;;;36.80;18.10;;;2.00;1.00;;;;;;5051738;28;20203;-68
2022/02/28 08:25:28;;;;;;;32.87;17.13;;;2.50;1.00;;;;;;5066733;28;20195;-69
2022/02/28 08:27:55;;;;;;;32.00;17.23;;;3.50;1.00;;;;;;5071704;28;20551;-69
2022/02/28 08:30:22;;;;;;;31.80;17.33;;;3.60;20.40;;;;;;5071939;28;20280;-69
2022/02/28 08:32:49;;;;;;;34.03;17.17;;;2.40;1.00;;;;;;5071002;28;20218;-69
2022/02/28 08:35:18;;;;;;;30.43;17.83;;;2.90;1.00;;;;;;5072303;28;20218;-69
2022/02/28 08:37:45;;;;;;;30.43;18.00;;;3.60;99.90;;;;;;5071342;28;20198;-69
2022/02/28 08:40:13;;;;;;;27.87;16.73;;;4.10;99.90;;;;;;5072316;28;20565;-69
2022/02/28 08:42:40;;;;;;;28.97;15.80;;;4.80;1.00;;;;;;5072048;28;20228;-69
2022/02/28 08:45:08;;;;;;;32.20;16.53;;;4.10;99.90;;;;;;5071422;28;20297;-69
2022/02/28 08:47:35;;;;;;;28.63;16.57;;;3.30;1.00;;;;;;5071981;28;20206;-68
2022/02/28 08:50:03;;;;;;;32.53;16.23;;;2.70;1.00;;;;;;5071805;28;20202;-69
2022/02/28 08:52:32;;;;;;;31.07;16.60;;;2.90;1.00;;;;;;5071738;28;20267;-68
2022/02/28 08:54:59;;;;;;;34.27;17.03;;;3.00;1.00;;;;;;5071696;28;20688;-68
2022/02/28 08:57:27;;;;;;;30.87;16.30;;;2.90;1.00;;;;;;5073046;28;20565;-68
2022/02/28 08:59:54;;;;;;;30.27;16.60;;;3.00;1.00;;;;;;5075284;28;20202;-68
2022/02/28 09:02:20;;;;;;;30.60;16.13;;;3.10;1.00;;;;;;5076296;28;20213;-68
2022/02/28 09:04:47;;;;;;;29.60;16.07;;;3.10;99.90;;;;;;5075572;28;20194;-68
2022/02/28 09:07:14;;;;;;;29.20;16.53;;;2.90;66.00;;;;;;5075748;28;20653;-68
2022/02/28 09:09:41;;;;;;;29.40;16.20;;;2.90;61.80;;;;;;5075956;28;20213;-68
2022/02/28 09:12:09;;;;;;;33.50;18.87;;;3.10;1.00;;;;;;5075422;28;20205;-68
2022/02/28 09:14:38;;;;;;;34.67;19.07;;;3.30;1.00;;;;;;5074468;28;20700;-68
2022/02/28 09:17:06;;;;;;;31.63;17.10;;;3.30;99.90;;;;;;5075373;28;20201;-68
2022/02/28 09:19:33;;;;;;;32.17;17.57;;;3.40;1.00;;;;;;5075327;28;20210;-68
2022/02/28 09:22:00;;;;;;;34.20;18.00;;;3.70;99.90;;;;;;5075827;28;20209;-68
2022/02/28 09:24:28;;;;;;;32.77;18.33;;;4.00;99.90;;;;;;5074118;28;20194;-68
2022/02/28 09:26:55;;;;;;;33.27;18.17;;;4.20;1.00;;;;;;5075143;28;20217;-68
2022/02/28 09:29:22;;;;;;;33.50;19.00;;;4.40;1.00;;;;;;5075063;28;20335;-68
2022/02/28 09:31:50;;;;;;;32.20;18.27;;;4.50;1.00;;;;;;5075582;28;20202;-68
2022/02/28 09:34:17;;;;;;;34.70;20.03;;;4.40;1.00;;;;;;5075506;28;20219;-68
2022/02/28 09:36:44;;;;;;;33.90;19.20;;;4.40;99.90;;;;;;5075258;28;20212;-68
2022/02/28 09:39:10;;;;;;;35.23;19.53;;;4.40;1.00;;;;;;5074485;28;20295;-68
2022/02/28 09:41:38;;;;;;;37.73;21.40;;;4.30;1.00;;;;;;5075437;28;20201;-68
2022/02/28 09:44:06;;;;;;;36.27;21.80;;;3.90;1.00;;;;;;5075618;28;20212;-68
2022/02/28 09:46:33;;;;;;;38.17;20.20;;;3.90;1.00;;;;;;5074306;28;20199;-68
2022/02/28 09:49:02;;;;;;;35.37;19.03;;;3.90;94.30;;;;;;5075058;28;20565;-68
2022/02/28 09:51:29;;;;;;;38.87;20.17;;;3.70;1.00;;;;;;5074640;28;20217;-68
2022/02/28 09:53:56;;;;;;;37.57;19.93;;;3.70;1.00;;;;;;5074159;28;20301;-68
2022/02/28 09:56:24;;;;;;;35.20;20.30;;;3.70;1.00;;;;;;5074957;28;20205;-68
2022/02/28 09:58:52;;;;;;;34.30;19.20;;;3.50;1.00;;;;;;5074790;28;20210;-68
2022/02/28 10:01:19;;;;;;;37.63;20.17;;;3.20;99.90;;;;;;5073891;28;20568;-68
2022/02/28 10:03:45;;;;;;;38.87;21.70;;;2.90;1.00;;;;;;5075143;28;20579;-68
2022/02/28 10:06:14;;;;;;;41.50;20.30;;;3.20;1.00;;;;;;5074294;28;20656;-68
2022/02/28 10:08:42;;;;;;;42.53;20.83;;;2.80;99.90;;;;;;5073025;28;20202;-68
2022/02/28 10:11:27;;;;;;;42.63;20.40;;;3.00;99.90;;;;;;5074494;28;20563;-68
2022/02/28 10:13:55;;;;;;;50.33;25.83;;;2.90;99.90;;;;;;5074058;28;20206;-68
2022/02/28 10:16:34;;;;;;;58.63;27.07;;;3.00;1.00;;;;;;5074346;28;20560;-68
2022/02/28 10:19:01;;;;;;;62.53;27.53;;;3.00;1.00;;;;;;5073907;28;20216;-68
2022/02/28 10:21:44;;;;;;;63.53;29.73;;;2.60;1.00;;;;;;5073912;28;20694;-68
2022/02/28 10:24:12;;;;;;;65.03;29.17;;;2.60;1.00;;;;;;5074015;28;20569;-68
2022/02/28 10:26:44;;;;;;;58.90;27.43;;;2.80;99.90;;;;;;5073861;28;20206;-68
2022/02/28 10:29:13;;;;;;;67.27;29.67;;;2.60;1.00;;;;;;5074223;28;20228;-68
2022/02/28 10:31:42;;;;;;;81.47;35.63;;;2.70;99.90;;;;;;5074063;28;20213;-68
2022/02/28 10:34:14;;;;;;;69.60;29.70;;;2.80;1.00;;;;;;5074599;28;20383;-68
2022/02/28 10:36:45;;;;;;;82.67;32.73;;;2.60;1.00;;;;;;5074160;28;20210;-68
2022/02/28 10:39:12;;;;;;;78.30;32.23;;;2.40;99.90;;;;;;5073259;28;20206;-68
2022/02/28 10:41:41;;;;;;;84.20;35.67;;;2.50;99.90;;;;;;5074054;28;20216;-68
2022/02/28 10:44:10;;;;;;;82.53;33.53;;;2.70;1.00;;;;;;5074105;28;20679;-68
2022/02/28 10:46:42;;;;;;;54.57;26.00;;;3.10;1.00;;;;;;5074085;28;20661;-68
2022/02/28 10:49:15;;;;;;;71.63;30.20;;;2.50;1.00;;;;;;5073509;28;20663;-68
2022/02/28 10:51:52;;;;;;;70.73;32.90;;;3.10;1.00;;;;;;5073700;28;20230;-68
2022/02/28 10:54:22;;;;;;;66.40;28.77;;;2.90;1.00;;;;;;5072950;28;20212;-68
2022/02/28 10:56:59;;;;;;;79.83;32.47;;;3.10;1.00;;;;;;5073717;28;20298;-68
2022/02/28 10:59:29;;;;;;;68.53;26.77;;;3.10;1.00;;;;;;5073499;28;20198;-68
2022/02/28 11:01:57;;;;;;;67.00;28.73;;;3.00;99.90;;;;;;5073856;28;20649;-68
2022/02/28 11:04:35;;;;;;;73.97;33.97;;;3.20;1.00;;;;;;5073825;28;20207;-68
2022/02/28 11:07:06;;;;;;;62.23;30.23;;;3.40;99.90;;;;;;5072993;28;20190;-68
2022/02/28 11:09:35;;;;;;;64.63;30.10;;;3.40;1.00;;;;;;5073207;28;20202;-68
2022/02/28 11:12:22;;;;;;;54.53;26.07;;;3.40;1.00;;;;;;5073799;28;20206;-68
2022/02/28 11:14:49;;;;;;;72.57;32.93;;;3.60;99.90;;;;;;5073021;28;20228;-68
2022/02/28 11:17:18;;;;;;;72.63;33.27;;;3.90;6.50;;;;;;5073821;28;20210;-68
2022/02/28 11:19:47;;;;;;;64.10;29.70;;;4.20;1.00;;;;;;5073387;28;20210;-68
2022/02/28 11:22:15;;;;;;;56.37;29.87;;;3.80;99.90;;;;;;5073226;28;20616;-68
2022/02/28 11:24:43;;;;;;;60.93;30.97;;;4.00;1.00;;;;;;5072537;28;20217;-68
2022/02/28 11:27:10;;;;;;;55.77;28.00;;;4.10;99.90;;;;;;5073723;28;20210;-68
2022/02/28 11:29:37;;;;;;;51.00;27.37;;;3.90;99.90;;;;;;5072793;28;20206;-68
2022/02/28 11:32:07;;;;;;;51.20;27.03;;;4.20;76.60;;;;;;5073150;28;20668;-68
2022/02/28 11:34:35;;;;;;;47.47;24.43;;;4.50;1.00;;;;;;5072969;28;20206;-68
2022/02/28 11:37:03;;;;;;;49.40;24.43;;;4.40;74.00;;;;;;5073055;28;20652;-68
2022/02/28 11:39:32;;;;;;;49.13;25.17;;;4.40;1.00;;;;;;5072616;28;20228;-68
2022/02/28 11:42:00;;;;;;;51.27;26.03;;;4.50;1.00;;;;;;5073136;28;20572;-68
2022/02/28 11:44:27;;;;;;;50.07;27.20;;;4.50;99.90;;;;;;5072549;28;20228;-68
2022/02/28 11:47:02;;;;;;;49.90;26.20;;;4.40;1.00;;;;;;5071720;28;20297;-68
2022/02/28 11:49:40;;;;;;;48.03;24.17;;;4.60;99.90;;;;;;5072530;28;20696;-68
2022/02/28 11:52:29;;;;;;;45.30;23.67;;;4.60;99.90;;;;;;5071696;28;20550;-68
2022/02/28 11:55:01;;;;;;;44.10;22.70;;;4.60;1.00;;;;;;5072001;28;20218;-68
2022/02/28 11:57:53;;;;;;;47.70;25.83;;;4.50;5.30;;;;;;5071649;28;20210;-68
2022/02/28 12:00:35;;;;;;;58.30;28.40;;;4.80;99.90;;;;;;5072185;28;20664;-68
2022/02/28 12:03:02;;;;;;;50.30;25.77;;;4.80;1.00;;;;;;5070002;28;20297;-68
2022/02/28 12:05:39;;;;;;;45.40;24.43;;;4.80;1.00;;;;;;5071603;28;20206;-68
2022/02/28 12:08:09;;;;;;;46.27;23.07;;;4.50;97.70;;;;;;5072367;28;20244;-68
2022/02/28 12:10:40;;;;;;;47.07;24.83;;;4.60;1.00;;;;;;5072540;28;20216;-68
2022/02/28 12:13:06;;;;;;;50.57;25.63;;;4.70;99.90;;;;;;5072610;28;20206;-68
2022/02/28 12:15:33;;;;;;;48.73;25.60;;;4.60;1.00;;;;;;5072161;28;20226;-68
2022/02/28 12:18:06;;;;;;;50.43;26.73;;;4.90;1.00;;;;;;5072208;28;20238;-68
2022/02/28 12:20:36;;;;;;;49.23;25.67;;;4.90;1.00;;;;;;5071807;28;20199;-68
2022/02/28 12:23:09;;;;;;;51.00;25.47;;;4.80;1.00;;;;;;5071732;28;20620;-68
2022/02/28 12:25:39;;;;;;;49.10;24.67;;;5.00;1.00;;;;;;5072100;28;20205;-68
2022/02/28 12:28:20;;;;;;;44.87;25.07;;;4.90;1.00;;;;;;5072118;28;20202;-68
2022/02/28 12:30:49;;;;;;;50.50;25.93;;;5.20;1.00;;;;;;5071598;28;20214;-68
2022/02/28 12:33:17;;;;;;;52.83;26.97;;;5.00;90.90;;;;;;5072035;28;20260;-68
2022/02/28 12:36:00;;;;;;;47.53;24.33;;;4.90;1.00;;;;;;5071597;28;20233;-67
2022/02/28 12:38:31;;;;;;;45.57;24.77;;;4.80;1.00;;;;;;5072124;28;20240;-68
2022/02/28 12:41:01;;;;;;;42.30;23.10;;;4.70;1.00;;;;;;5072455;28;20652;-68
2022/02/28 12:43:29;;;;;;;42.23;22.20;;;5.10;1.00;;;;;;5071289;28;20208;-68